sensor_id;sensor_type;location;lat;lon;timestamp;P1;durP1;ratioP1;P2;durP2;ratioP2
65206;SDS011;58477;48.072;11.970;2023-11-21T00:01:52;5.75;;;1.52;;
65206;SDS011;58477;48.072;11.970;2023-11-21T00:04:17;2.92;;;1.52;;
65206;SDS011;58477;48.072;11.970;2023-11-21T00:06:43;7.40;;;1.83;;
65206;SDS011;58477;48.072;11.970;2023-11-21T00:09:11;3.85;;;1.10;;
65206;SDS011;58477;48.072;11.970;2023-11-21T00:11:38;6.63;;;1.92;;
65206;SDS011;58477;48.072;11.970;2023-11-21T00:14:03;4.72;;;1.40;;
65206;SDS011;58477;48.072;11.970;2023-11-21T00:16:29;4.65;;;1.27;;
65206;SDS011;58477;48.072;11.970;2023-11-21T00:18:54;1.90;;;1.00;;
65206;SDS011;58477;48.072;11.970;2023-11-21T00:21:20;2.50;;;1.27;;
65206;SDS011;58477;48.072;11.970;2023-11-21T00:23:45;3.50;;;2.03;;
65206;SDS011;58477;48.072;11.970;2023-11-21T00:26:10;3.45;;;1.38;;
65206;SDS011;58477;48.072;11.970;2023-11-21T00:28:36;5.68;;;1.02;;
65206;SDS011;58477;48.072;11.970;2023-11-21T00:31:02;2.08;;;1.17;;
65206;SDS011;58477;48.072;11.970;2023-11-21T00:33:27;3.78;;;1.05;;
65206;SDS011;58477;48.072;11.970;2023-11-21T00:35:52;5.03;;;1.05;;
65206;SDS011;58477;48.072;11.970;2023-11-21T00:38:18;2.60;;;1.30;;
65206;SDS011;58477;48.072;11.970;2023-11-21T00:40:45;4.72;;;1.25;;
65206;SDS011;58477;48.072;11.970;2023-11-21T00:43:11;3.97;;;1.08;;
65206;SDS011;58477;48.072;11.970;2023-11-21T00:45:36;1.63;;;1.08;;
65206;SDS011;58477;48.072;11.970;2023-11-21T00:48:02;4.30;;;1.20;;
65206;SDS011;58477;48.072;11.970;2023-11-21T00:50:30;2.33;;;0.98;;
65206;SDS011;58477;48.072;11.970;2023-11-21T00:52:55;3.72;;;1.40;;
65206;SDS011;58477;48.072;11.970;2023-11-21T00:55:21;5.20;;;1.40;;
65206;SDS011;58477;48.072;11.970;2023-11-21T00:57:47;4.22;;;1.50;;
65206;SDS011;58477;48.072;11.970;2023-11-21T01:00:12;3.65;;;1.73;;
65206;SDS011;58477;48.072;11.970;2023-11-21T01:02:43;4.45;;;1.20;;
65206;SDS011;58477;48.072;11.970;2023-11-21T01:05:10;8.23;;;1.55;;
65206;SDS011;58477;48.072;11.970;2023-11-21T01:07:35;3.63;;;1.52;;
65206;SDS011;58477;48.072;11.970;2023-11-21T01:10:02;3.20;;;1.55;;
65206;SDS011;58477;48.072;11.970;2023-11-21T01:12:31;3.20;;;1.08;;
65206;SDS011;58477;48.072;11.970;2023-11-21T01:14:56;3.78;;;1.45;;
65206;SDS011;58477;48.072;11.970;2023-11-21T01:17:25;1.67;;;1.05;;
65206;SDS011;58477;48.072;11.970;2023-11-21T01:19:50;11.18;;;1.90;;
65206;SDS011;58477;48.072;11.970;2023-11-21T01:22:16;8.70;;;1.92;;
65206;SDS011;58477;48.072;11.970;2023-11-21T01:24:43;2.75;;;1.30;;
65206;SDS011;58477;48.072;11.970;2023-11-21T01:27:10;5.10;;;1.63;;
65206;SDS011;58477;48.072;11.970;2023-11-21T01:29:36;3.50;;;1.48;;
65206;SDS011;58477;48.072;11.970;2023-11-21T01:32:02;2.75;;;1.40;;
65206;SDS011;58477;48.072;11.970;2023-11-21T01:34:28;11.77;;;1.63;;
65206;SDS011;58477;48.072;11.970;2023-11-21T01:36:54;1.73;;;1.33;;
65206;SDS011;58477;48.072;11.970;2023-11-21T01:39:19;3.70;;;1.70;;
65206;SDS011;58477;48.072;11.970;2023-11-21T01:41:49;4.03;;;1.52;;
65206;SDS011;58477;48.072;11.970;2023-11-21T01:44:15;4.95;;;1.98;;
65206;SDS011;58477;48.072;11.970;2023-11-21T01:46:42;6.85;;;1.85;;
65206;SDS011;58477;48.072;11.970;2023-11-21T01:49:07;1.95;;;1.67;;
65206;SDS011;58477;48.072;11.970;2023-11-21T01:51:35;6.78;;;1.70;;
65206;SDS011;58477;48.072;11.970;2023-11-21T01:54:02;6.75;;;1.60;;
65206;SDS011;58477;48.072;11.970;2023-11-21T01:56:30;2.80;;;1.70;;
65206;SDS011;58477;48.072;11.970;2023-11-21T01:58:57;4.63;;;1.65;;
65206;SDS011;58477;48.072;11.970;2023-11-21T02:01:22;4.55;;;1.48;;
65206;SDS011;58477;48.072;11.970;2023-11-21T02:03:48;6.60;;;1.55;;
65206;SDS011;58477;48.072;11.970;2023-11-21T02:06:13;3.80;;;1.30;;
65206;SDS011;58477;48.072;11.970;2023-11-21T02:08:39;3.47;;;1.60;;
65206;SDS011;58477;48.072;11.970;2023-11-21T02:11:05;3.58;;;1.30;;
65206;SDS011;58477;48.072;11.970;2023-11-21T02:13:30;2.65;;;1.45;;
65206;SDS011;58477;48.072;11.970;2023-11-21T02:15:57;6.72;;;1.70;;
65206;SDS011;58477;48.072;11.970;2023-11-21T02:18:23;5.78;;;1.55;;
65206;SDS011;58477;48.072;11.970;2023-11-21T02:20:48;5.82;;;1.50;;
65206;SDS011;58477;48.072;11.970;2023-11-21T02:23:14;7.10;;;1.50;;
65206;SDS011;58477;48.072;11.970;2023-11-21T02:25:39;3.70;;;1.38;;
65206;SDS011;58477;48.072;11.970;2023-11-21T02:28:07;4.30;;;1.17;;
65206;SDS011;58477;48.072;11.970;2023-11-21T02:30:33;7.38;;;1.52;;
65206;SDS011;58477;48.072;11.970;2023-11-21T02:33:00;5.18;;;1.20;;
65206;SDS011;58477;48.072;11.970;2023-11-21T02:35:26;3.35;;;1.30;;
65206;SDS011;58477;48.072;11.970;2023-11-21T02:37:52;5.07;;;1.48;;
65206;SDS011;58477;48.072;11.970;2023-11-21T02:40:18;2.40;;;1.35;;
65206;SDS011;58477;48.072;11.970;2023-11-21T02:42:45;4.03;;;1.20;;
65206;SDS011;58477;48.072;11.970;2023-11-21T02:45:17;2.78;;;1.10;;
65206;SDS011;58477;48.072;11.970;2023-11-21T02:47:45;3.50;;;1.30;;
65206;SDS011;58477;48.072;11.970;2023-11-21T02:50:11;5.07;;;1.50;;
65206;SDS011;58477;48.072;11.970;2023-11-21T02:52:37;4.18;;;1.40;;
65206;SDS011;58477;48.072;11.970;2023-11-21T02:55:02;4.10;;;1.17;;
65206;SDS011;58477;48.072;11.970;2023-11-21T02:57:28;3.92;;;0.95;;
65206;SDS011;58477;48.072;11.970;2023-11-21T02:59:54;7.15;;;1.45;;
65206;SDS011;58477;48.072;11.970;2023-11-21T03:02:19;5.30;;;1.23;;
65206;SDS011;58477;48.072;11.970;2023-11-21T03:04:45;8.50;;;1.20;;
65206;SDS011;58477;48.072;11.970;2023-11-21T03:07:13;6.07;;;1.02;;
65206;SDS011;58477;48.072;11.970;2023-11-21T03:09:38;2.67;;;1.42;;
65206;SDS011;58477;48.072;11.970;2023-11-21T03:12:04;6.35;;;1.13;;
65206;SDS011;58477;48.072;11.970;2023-11-21T03:14:30;2.92;;;0.75;;
65206;SDS011;58477;48.072;11.970;2023-11-21T03:16:57;2.45;;;1.33;;
65206;SDS011;58477;48.072;11.970;2023-11-21T03:19:22;1.85;;;0.88;;
65206;SDS011;58477;48.072;11.970;2023-11-21T03:21:48;3.22;;;1.27;;
65206;SDS011;58477;48.072;11.970;2023-11-21T03:24:14;0.88;;;0.88;;
65206;SDS011;58477;48.072;11.970;2023-11-21T03:26:44;3.92;;;1.00;;
65206;SDS011;58477;48.072;11.970;2023-11-21T03:29:10;7.93;;;1.27;;
65206;SDS011;58477;48.072;11.970;2023-11-21T03:31:36;1.33;;;0.70;;
65206;SDS011;58477;48.072;11.970;2023-11-21T03:34:01;3.08;;;1.10;;
65206;SDS011;58477;48.072;11.970;2023-11-21T03:36:27;2.50;;;0.70;;
65206;SDS011;58477;48.072;11.970;2023-11-21T03:38:52;4.70;;;1.10;;
65206;SDS011;58477;48.072;11.970;2023-11-21T03:41:18;3.30;;;0.65;;
65206;SDS011;58477;48.072;11.970;2023-11-21T03:43:43;3.05;;;1.05;;
65206;SDS011;58477;48.072;11.970;2023-11-21T03:46:11;2.22;;;0.88;;
65206;SDS011;58477;48.072;11.970;2023-11-21T03:48:37;1.27;;;0.70;;
65206;SDS011;58477;48.072;11.970;2023-11-21T03:51:03;3.25;;;1.10;;
65206;SDS011;58477;48.072;11.970;2023-11-21T03:53:29;1.27;;;0.57;;
65206;SDS011;58477;48.072;11.970;2023-11-21T03:55:54;2.30;;;0.88;;
65206;SDS011;58477;48.072;11.970;2023-11-21T03:58:19;0.88;;;0.70;;
65206;SDS011;58477;48.072;11.970;2023-11-21T04:00:46;13.55;;;1.20;;
65206;SDS011;58477;48.072;11.970;2023-11-21T04:03:14;1.75;;;0.85;;
65206;SDS011;58477;48.072;11.970;2023-11-21T04:05:39;1.05;;;0.57;;
65206;SDS011;58477;48.072;11.970;2023-11-21T04:08:04;1.45;;;0.90;;
65206;SDS011;58477;48.072;11.970;2023-11-21T04:10:30;1.05;;;0.70;;
65206;SDS011;58477;48.072;11.970;2023-11-21T04:12:55;3.38;;;0.85;;
65206;SDS011;58477;48.072;11.970;2023-11-21T04:15:21;1.52;;;0.70;;
65206;SDS011;58477;48.072;11.970;2023-11-21T04:17:46;3.53;;;0.90;;
65206;SDS011;58477;48.072;11.970;2023-11-21T04:20:12;2.70;;;0.80;;
65206;SDS011;58477;48.072;11.970;2023-11-21T04:22:40;4.35;;;0.75;;
65206;SDS011;58477;48.072;11.970;2023-11-21T04:25:13;3.77;;;1.10;;
65206;SDS011;58477;48.072;11.970;2023-11-21T04:27:39;4.38;;;0.80;;
65206;SDS011;58477;48.072;11.970;2023-11-21T04:30:05;2.03;;;0.70;;
65206;SDS011;58477;48.072;11.970;2023-11-21T04:32:31;1.95;;;0.75;;
65206;SDS011;58477;48.072;11.970;2023-11-21T04:34:57;9.43;;;1.20;;
65206;SDS011;58477;48.072;11.970;2023-11-21T04:37:23;1.38;;;0.85;;
65206;SDS011;58477;48.072;11.970;2023-11-21T04:39:48;6.13;;;1.05;;
65206;SDS011;58477;48.072;11.970;2023-11-21T04:42:14;0.60;;;0.60;;
65206;SDS011;58477;48.072;11.970;2023-11-21T04:44:39;2.80;;;0.98;;
65206;SDS011;58477;48.072;11.970;2023-11-21T04:47:06;3.42;;;0.90;;
65206;SDS011;58477;48.072;11.970;2023-11-21T04:49:32;1.17;;;0.85;;
65206;SDS011;58477;48.072;11.970;2023-11-21T04:51:58;2.95;;;0.70;;
65206;SDS011;58477;48.072;11.970;2023-11-21T04:54:23;2.30;;;1.20;;
65206;SDS011;58477;48.072;11.970;2023-11-21T04:56:49;4.13;;;0.93;;
65206;SDS011;58477;48.072;11.970;2023-11-21T04:59:14;0.88;;;0.88;;
65206;SDS011;58477;48.072;11.970;2023-11-21T05:01:40;0.98;;;0.88;;
65206;SDS011;58477;48.072;11.970;2023-11-21T05:04:05;2.35;;;1.17;;
65206;SDS011;58477;48.072;11.970;2023-11-21T05:06:31;1.45;;;0.70;;
65206;SDS011;58477;48.072;11.970;2023-11-21T05:08:57;0.80;;;0.70;;
65206;SDS011;58477;48.072;11.970;2023-11-21T05:11:27;3.72;;;0.63;;
65206;SDS011;58477;48.072;11.970;2023-11-21T05:13:54;2.88;;;0.60;;
65206;SDS011;58477;48.072;11.970;2023-11-21T05:16:21;1.30;;;0.60;;
65206;SDS011;58477;48.072;11.970;2023-11-21T05:18:47;2.85;;;0.68;;
65206;SDS011;58477;48.072;11.970;2023-11-21T05:21:12;3.70;;;0.90;;
65206;SDS011;58477;48.072;11.970;2023-11-21T05:23:38;0.32;;;0.32;;
65206;SDS011;58477;48.072;11.970;2023-11-21T05:26:04;1.75;;;0.45;;
65206;SDS011;58477;48.072;11.970;2023-11-21T05:28:29;0.50;;;0.50;;
65206;SDS011;58477;48.072;11.970;2023-11-21T05:30:55;0.55;;;0.50;;
65206;SDS011;58477;48.072;11.970;2023-11-21T05:33:20;1.00;;;0.73;;
65206;SDS011;58477;48.072;11.970;2023-11-21T05:35:46;0.90;;;0.80;;
65206;SDS011;58477;48.072;11.970;2023-11-21T05:38:14;1.67;;;0.47;;
65206;SDS011;58477;48.072;11.970;2023-11-21T05:40:39;0.55;;;0.55;;
65206;SDS011;58477;48.072;11.970;2023-11-21T05:43:05;3.90;;;0.73;;
65206;SDS011;58477;48.072;11.970;2023-11-21T05:45:32;2.92;;;0.60;;
65206;SDS011;58477;48.072;11.970;2023-11-21T05:47:59;4.25;;;0.80;;
65206;SDS011;58477;48.072;11.970;2023-11-21T05:50:25;1.80;;;0.90;;
65206;SDS011;58477;48.072;11.970;2023-11-21T05:52:50;0.50;;;0.50;;
65206;SDS011;58477;48.072;11.970;2023-11-21T05:55:16;3.05;;;0.93;;
65206;SDS011;58477;48.072;11.970;2023-11-21T05:57:42;1.70;;;0.90;;
65206;SDS011;58477;48.072;11.970;2023-11-21T06:00:09;0.80;;;0.80;;
65206;SDS011;58477;48.072;11.970;2023-11-21T06:02:43;2.95;;;0.65;;
65206;SDS011;58477;48.072;11.970;2023-11-21T06:05:09;1.70;;;0.68;;
65206;SDS011;58477;48.072;11.970;2023-11-21T06:07:34;2.28;;;0.80;;
65206;SDS011;58477;48.072;11.970;2023-11-21T06:10:07;2.72;;;0.63;;
65206;SDS011;58477;48.072;11.970;2023-11-21T06:12:36;1.60;;;0.77;;
65206;SDS011;58477;48.072;11.970;2023-11-21T06:15:03;2.50;;;0.90;;
65206;SDS011;58477;48.072;11.970;2023-11-21T06:17:38;2.40;;;0.75;;
65206;SDS011;58477;48.072;11.970;2023-11-21T06:20:05;1.95;;;0.70;;
65206;SDS011;58477;48.072;11.970;2023-11-21T06:25:02;1.38;;;0.60;;
65206;SDS011;58477;48.072;11.970;2023-11-21T06:27:31;3.97;;;1.00;;
65206;SDS011;58477;48.072;11.970;2023-11-21T06:29:57;2.55;;;0.68;;
65206;SDS011;58477;48.072;11.970;2023-11-21T06:32:22;1.75;;;0.77;;
65206;SDS011;58477;48.072;11.970;2023-11-21T06:34:48;2.28;;;0.75;;
65206;SDS011;58477;48.072;11.970;2023-11-21T06:37:14;4.35;;;0.90;;
65206;SDS011;58477;48.072;11.970;2023-11-21T06:39:40;1.90;;;0.80;;
65206;SDS011;58477;48.072;11.970;2023-11-21T06:42:06;1.95;;;0.80;;
65206;SDS011;58477;48.072;11.970;2023-11-21T06:44:32;1.83;;;0.80;;
65206;SDS011;58477;48.072;11.970;2023-11-21T06:46:58;6.03;;;0.80;;
65206;SDS011;58477;48.072;11.970;2023-11-21T06:49:24;2.85;;;0.80;;
65206;SDS011;58477;48.072;11.970;2023-11-21T06:51:49;0.98;;;0.82;;
65206;SDS011;58477;48.072;11.970;2023-11-21T06:54:15;3.80;;;0.70;;
65206;SDS011;58477;48.072;11.970;2023-11-21T06:56:40;1.35;;;0.60;;
65206;SDS011;58477;48.072;11.970;2023-11-21T06:59:06;0.85;;;0.60;;
65206;SDS011;58477;48.072;11.970;2023-11-21T07:01:31;1.45;;;0.50;;
65206;SDS011;58477;48.072;11.970;2023-11-21T07:04:04;3.92;;;0.80;;
65206;SDS011;58477;48.072;11.970;2023-11-21T07:06:30;1.27;;;0.60;;
65206;SDS011;58477;48.072;11.970;2023-11-21T07:08:56;1.23;;;0.65;;
65206;SDS011;58477;48.072;11.970;2023-11-21T07:11:22;2.85;;;0.70;;
65206;SDS011;58477;48.072;11.970;2023-11-21T07:13:47;1.60;;;0.70;;
65206;SDS011;58477;48.072;11.970;2023-11-21T07:16:13;1.45;;;0.60;;
65206;SDS011;58477;48.072;11.970;2023-11-21T07:18:40;0.50;;;0.50;;
65206;SDS011;58477;48.072;11.970;2023-11-21T07:21:05;3.50;;;0.52;;
65206;SDS011;58477;48.072;11.970;2023-11-21T07:23:31;1.95;;;0.60;;
65206;SDS011;58477;48.072;11.970;2023-11-21T07:25:56;0.60;;;0.60;;
65206;SDS011;58477;48.072;11.970;2023-11-21T07:28:22;0.52;;;0.52;;
65206;SDS011;58477;48.072;11.970;2023-11-21T07:30:50;0.75;;;0.57;;
65206;SDS011;58477;48.072;11.970;2023-11-21T07:33:16;1.38;;;1.02;;
65206;SDS011;58477;48.072;11.970;2023-11-21T07:35:42;2.28;;;0.85;;
65206;SDS011;58477;48.072;11.970;2023-11-21T07:38:08;1.20;;;1.10;;
65206;SDS011;58477;48.072;11.970;2023-11-21T07:40:33;0.80;;;0.80;;
65206;SDS011;58477;48.072;11.970;2023-11-21T07:42:59;0.65;;;0.65;;
65206;SDS011;58477;48.072;11.970;2023-11-21T07:45:24;0.98;;;0.90;;
65206;SDS011;58477;48.072;11.970;2023-11-21T07:47:53;0.63;;;0.63;;
65206;SDS011;58477;48.072;11.970;2023-11-21T07:50:19;4.68;;;0.95;;
65206;SDS011;58477;48.072;11.970;2023-11-21T07:52:45;1.50;;;0.60;;
65206;SDS011;58477;48.072;11.970;2023-11-21T07:55:11;0.60;;;0.60;;
65206;SDS011;58477;48.072;11.970;2023-11-21T07:57:36;5.78;;;0.70;;
65206;SDS011;58477;48.072;11.970;2023-11-21T08:00:03;2.88;;;0.80;;
65206;SDS011;58477;48.072;11.970;2023-11-21T08:02:38;0.80;;;0.80;;
65206;SDS011;58477;48.072;11.970;2023-11-21T08:05:04;2.63;;;0.80;;
65206;SDS011;58477;48.072;11.970;2023-11-21T08:07:32;1.58;;;0.70;;
65206;SDS011;58477;48.072;11.970;2023-11-21T08:09:58;3.83;;;0.73;;
65206;SDS011;58477;48.072;11.970;2023-11-21T08:12:23;1.30;;;0.85;;
65206;SDS011;58477;48.072;11.970;2023-11-21T08:14:49;0.85;;;0.80;;
65206;SDS011;58477;48.072;11.970;2023-11-21T08:17:15;2.92;;;0.85;;
65206;SDS011;58477;48.072;11.970;2023-11-21T08:19:41;3.17;;;0.88;;
65206;SDS011;58477;48.072;11.970;2023-11-21T08:22:06;0.82;;;0.70;;
65206;SDS011;58477;48.072;11.970;2023-11-21T08:24:33;3.50;;;0.70;;
65206;SDS011;58477;48.072;11.970;2023-11-21T08:26:58;1.55;;;0.50;;
65206;SDS011;58477;48.072;11.970;2023-11-21T08:29:23;3.88;;;0.75;;
65206;SDS011;58477;48.072;11.970;2023-11-21T08:31:49;2.47;;;0.80;;
65206;SDS011;58477;48.072;11.970;2023-11-21T08:34:14;0.60;;;0.60;;
65206;SDS011;58477;48.072;11.970;2023-11-21T08:36:43;1.00;;;0.80;;
65206;SDS011;58477;48.072;11.970;2023-11-21T08:39:09;0.82;;;0.63;;
65206;SDS011;58477;48.072;11.970;2023-11-21T08:41:35;1.02;;;0.90;;
65206;SDS011;58477;48.072;11.970;2023-11-21T08:44:01;0.70;;;0.70;;
65206;SDS011;58477;48.072;11.970;2023-11-21T08:46:32;2.28;;;0.70;;
65206;SDS011;58477;48.072;11.970;2023-11-21T08:49:00;1.75;;;0.65;;
65206;SDS011;58477;48.072;11.970;2023-11-21T08:51:26;0.60;;;0.60;;
65206;SDS011;58477;48.072;11.970;2023-11-21T08:53:51;0.40;;;0.40;;
65206;SDS011;58477;48.072;11.970;2023-11-21T08:56:18;0.88;;;0.60;;
65206;SDS011;58477;48.072;11.970;2023-11-21T08:58:45;0.70;;;0.70;;
65206;SDS011;58477;48.072;11.970;2023-11-21T09:01:12;1.58;;;0.80;;
65206;SDS011;58477;48.072;11.970;2023-11-21T09:03:37;1.65;;;0.47;;
65206;SDS011;58477;48.072;11.970;2023-11-21T09:06:03;1.55;;;0.60;;
65206;SDS011;58477;48.072;11.970;2023-11-21T09:08:29;1.75;;;0.60;;
65206;SDS011;58477;48.072;11.970;2023-11-21T09:10:55;0.40;;;0.40;;
65206;SDS011;58477;48.072;11.970;2023-11-21T09:13:21;0.50;;;0.50;;
65206;SDS011;58477;48.072;11.970;2023-11-21T09:15:46;2.53;;;0.80;;
65206;SDS011;58477;48.072;11.970;2023-11-21T09:18:14;2.50;;;0.60;;
65206;SDS011;58477;48.072;11.970;2023-11-21T09:20:42;7.30;;;1.00;;
65206;SDS011;58477;48.072;11.970;2023-11-21T09:23:09;3.83;;;0.55;;
65206;SDS011;58477;48.072;11.970;2023-11-21T09:25:34;2.22;;;0.70;;
65206;SDS011;58477;48.072;11.970;2023-11-21T09:28:00;1.60;;;0.80;;
65206;SDS011;58477;48.072;11.970;2023-11-21T09:30:25;2.40;;;0.77;;
65206;SDS011;58477;48.072;11.970;2023-11-21T09:32:51;0.93;;;0.57;;
65206;SDS011;58477;48.072;11.970;2023-11-21T09:35:16;1.02;;;0.60;;
65206;SDS011;58477;48.072;11.970;2023-11-21T09:37:45;2.05;;;0.80;;
65206;SDS011;58477;48.072;11.970;2023-11-21T09:40:11;1.15;;;0.60;;
65206;SDS011;58477;48.072;11.970;2023-11-21T09:42:39;0.52;;;0.50;;
65206;SDS011;58477;48.072;11.970;2023-11-21T09:45:15;0.73;;;0.63;;
65206;SDS011;58477;48.072;11.970;2023-11-21T09:47:46;0.60;;;0.60;;
65206;SDS011;58477;48.072;11.970;2023-11-21T09:50:13;0.50;;;0.50;;
65206;SDS011;58477;48.072;11.970;2023-11-21T09:55:23;1.85;;;0.70;;
65206;SDS011;58477;48.072;11.970;2023-11-21T09:57:52;0.88;;;0.70;;
65206;SDS011;58477;48.072;11.970;2023-11-21T10:00:19;1.58;;;0.90;;
65206;SDS011;58477;48.072;11.970;2023-11-21T10:02:48;0.68;;;0.60;;
65206;SDS011;58477;48.072;11.970;2023-11-21T10:05:15;1.42;;;0.70;;
65206;SDS011;58477;48.072;11.970;2023-11-21T10:07:43;1.02;;;0.52;;
65206;SDS011;58477;48.072;11.970;2023-11-21T10:10:10;1.15;;;0.80;;
65206;SDS011;58477;48.072;11.970;2023-11-21T10:12:35;3.63;;;0.93;;
65206;SDS011;58477;48.072;11.970;2023-11-21T10:15:02;2.47;;;0.73;;
65206;SDS011;58477;48.072;11.970;2023-11-21T10:17:32;0.75;;;0.70;;
65206;SDS011;58477;48.072;11.970;2023-11-21T10:20:08;1.52;;;0.98;;
65206;SDS011;58477;48.072;11.970;2023-11-21T10:22:39;2.00;;;0.63;;
65206;SDS011;58477;48.072;11.970;2023-11-21T10:25:07;1.95;;;0.98;;
65206;SDS011;58477;48.072;11.970;2023-11-21T10:27:36;0.55;;;0.52;;
65206;SDS011;58477;48.072;11.970;2023-11-21T10:30:03;0.80;;;0.80;;
65206;SDS011;58477;48.072;11.970;2023-11-21T10:32:30;2.40;;;0.77;;
65206;SDS011;58477;48.072;11.970;2023-11-21T10:34:58;0.57;;;0.50;;
65206;SDS011;58477;48.072;11.970;2023-11-21T10:37:34;0.93;;;0.70;;
65206;SDS011;58477;48.072;11.970;2023-11-21T10:40:00;2.53;;;0.70;;
65206;SDS011;58477;48.072;11.970;2023-11-21T10:42:25;2.50;;;0.68;;
65206;SDS011;58477;48.072;11.970;2023-11-21T10:44:52;2.85;;;0.70;;
65206;SDS011;58477;48.072;11.970;2023-11-21T10:47:19;0.80;;;0.80;;
65206;SDS011;58477;48.072;11.970;2023-11-21T10:49:45;1.40;;;0.80;;
65206;SDS011;58477;48.072;11.970;2023-11-21T10:52:13;0.75;;;0.70;;
65206;SDS011;58477;48.072;11.970;2023-11-21T10:54:43;0.95;;;0.80;;
65206;SDS011;58477;48.072;11.970;2023-11-21T10:57:09;1.65;;;0.57;;
65206;SDS011;58477;48.072;11.970;2023-11-21T10:59:36;1.17;;;0.70;;
65206;SDS011;58477;48.072;11.970;2023-11-21T11:02:02;1.05;;;0.70;;
65206;SDS011;58477;48.072;11.970;2023-11-21T11:04:46;1.98;;;0.60;;
65206;SDS011;58477;48.072;11.970;2023-11-21T11:07:13;5.47;;;0.82;;
65206;SDS011;58477;48.072;11.970;2023-11-21T11:09:41;2.13;;;0.93;;
65206;SDS011;58477;48.072;11.970;2023-11-21T11:12:07;1.80;;;0.90;;
65206;SDS011;58477;48.072;11.970;2023-11-21T11:14:35;0.88;;;0.60;;
65206;SDS011;58477;48.072;11.970;2023-11-21T11:17:00;0.80;;;0.80;;
65206;SDS011;58477;48.072;11.970;2023-11-21T11:19:27;1.73;;;0.80;;
65206;SDS011;58477;48.072;11.970;2023-11-21T11:24:49;3.65;;;0.90;;
65206;SDS011;58477;48.072;11.970;2023-11-21T11:27:30;1.02;;;0.85;;
65206;SDS011;58477;48.072;11.970;2023-11-21T11:38:22;1.48;;;0.80;;
65206;SDS011;58477;48.072;11.970;2023-11-21T11:40:51;1.88;;;0.90;;
65206;SDS011;58477;48.072;11.970;2023-11-21T11:43:25;1.58;;;0.70;;
65206;SDS011;58477;48.072;11.970;2023-11-21T11:45:52;1.55;;;0.70;;
65206;SDS011;58477;48.072;11.970;2023-11-21T11:48:21;0.55;;;0.55;;
65206;SDS011;58477;48.072;11.970;2023-11-21T11:51:09;0.98;;;0.82;;
65206;SDS011;58477;48.072;11.970;2023-11-21T11:53:46;1.70;;;0.90;;
65206;SDS011;58477;48.072;11.970;2023-11-21T11:56:28;0.88;;;0.70;;
65206;SDS011;58477;48.072;11.970;2023-11-21T11:58:59;1.90;;;0.85;;
65206;SDS011;58477;48.072;11.970;2023-11-21T12:01:28;1.13;;;0.63;;
65206;SDS011;58477;48.072;11.970;2023-11-21T12:06:51;0.82;;;0.80;;
65206;SDS011;58477;48.072;11.970;2023-11-21T12:09:18;4.68;;;0.90;;
65206;SDS011;58477;48.072;11.970;2023-11-21T12:11:44;2.42;;;0.70;;
65206;SDS011;58477;48.072;11.970;2023-11-21T12:14:11;2.00;;;0.70;;
65206;SDS011;58477;48.072;11.970;2023-11-21T12:16:38;0.75;;;0.60;;
65206;SDS011;58477;48.072;11.970;2023-11-21T12:19:04;1.20;;;0.73;;
65206;SDS011;58477;48.072;11.970;2023-11-21T12:21:30;1.70;;;1.00;;
65206;SDS011;58477;48.072;11.970;2023-11-21T12:23:57;1.90;;;0.90;;
65206;SDS011;58477;48.072;11.970;2023-11-21T12:26:25;2.45;;;0.90;;
65206;SDS011;58477;48.072;11.970;2023-11-21T12:28:52;2.50;;;1.17;;
65206;SDS011;58477;48.072;11.970;2023-11-21T12:31:21;0.90;;;0.75;;
65206;SDS011;58477;48.072;11.970;2023-11-21T12:33:49;1.10;;;0.85;;
65206;SDS011;58477;48.072;11.970;2023-11-21T12:36:15;1.33;;;0.93;;
65206;SDS011;58477;48.072;11.970;2023-11-21T12:38:41;1.63;;;0.85;;
65206;SDS011;58477;48.072;11.970;2023-11-21T12:41:07;1.90;;;0.73;;
65206;SDS011;58477;48.072;11.970;2023-11-21T12:43:33;1.70;;;0.80;;
65206;SDS011;58477;48.072;11.970;2023-11-21T12:46:06;1.42;;;0.43;;
65206;SDS011;58477;48.072;11.970;2023-11-21T12:48:36;1.77;;;0.60;;
65206;SDS011;58477;48.072;11.970;2023-11-21T12:51:04;0.52;;;0.40;;
65206;SDS011;58477;48.072;11.970;2023-11-21T12:53:31;1.85;;;0.45;;
65206;SDS011;58477;48.072;11.970;2023-11-21T12:56:06;1.25;;;0.80;;
65206;SDS011;58477;48.072;11.970;2023-11-21T12:58:34;0.50;;;0.50;;
65206;SDS011;58477;48.072;11.970;2023-11-21T13:01:07;0.65;;;0.52;;
65206;SDS011;58477;48.072;11.970;2023-11-21T13:03:44;0.65;;;0.57;;
65206;SDS011;58477;48.072;11.970;2023-11-21T13:06:13;0.70;;;0.40;;
65206;SDS011;58477;48.072;11.970;2023-11-21T13:08:40;1.90;;;1.05;;
65206;SDS011;58477;48.072;11.970;2023-11-21T13:11:05;1.83;;;0.80;;
65206;SDS011;58477;48.072;11.970;2023-11-21T13:13:31;1.58;;;0.90;;
65206;SDS011;58477;48.072;11.970;2023-11-21T13:15:59;1.00;;;0.70;;
65206;SDS011;58477;48.072;11.970;2023-11-21T13:18:26;1.27;;;1.15;;
65206;SDS011;58477;48.072;11.970;2023-11-21T13:20:53;2.08;;;0.80;;
65206;SDS011;58477;48.072;11.970;2023-11-21T13:23:20;0.57;;;0.57;;
65206;SDS011;58477;48.072;11.970;2023-11-21T13:25:46;0.40;;;0.40;;
65206;SDS011;58477;48.072;11.970;2023-11-21T13:28:13;0.88;;;0.70;;
65206;SDS011;58477;48.072;11.970;2023-11-21T13:30:40;0.50;;;0.50;;
65206;SDS011;58477;48.072;11.970;2023-11-21T13:33:06;0.70;;;0.60;;
65206;SDS011;58477;48.072;11.970;2023-11-21T13:35:36;1.35;;;0.70;;
65206;SDS011;58477;48.072;11.970;2023-11-21T13:38:16;0.70;;;0.70;;
65206;SDS011;58477;48.072;11.970;2023-11-21T13:40:47;1.00;;;0.73;;
65206;SDS011;58477;48.072;11.970;2023-11-21T13:43:19;0.70;;;0.70;;
65206;SDS011;58477;48.072;11.970;2023-11-21T13:45:47;1.10;;;1.00;;
65206;SDS011;58477;48.072;11.970;2023-11-21T13:48:17;0.80;;;0.80;;
65206;SDS011;58477;48.072;11.970;2023-11-21T13:50:50;1.63;;;0.93;;
65206;SDS011;58477;48.072;11.970;2023-11-21T13:53:33;2.15;;;1.10;;
65206;SDS011;58477;48.072;11.970;2023-11-21T13:56:02;1.58;;;1.15;;
65206;SDS011;58477;48.072;11.970;2023-11-21T13:58:27;1.42;;;0.70;;
65206;SDS011;58477;48.072;11.970;2023-11-21T14:01:11;0.90;;;0.90;;
65206;SDS011;58477;48.072;11.970;2023-11-21T14:03:49;4.03;;;1.60;;
65206;SDS011;58477;48.072;11.970;2023-11-21T14:06:22;1.08;;;0.95;;
65206;SDS011;58477;48.072;11.970;2023-11-21T14:08:52;4.60;;;1.55;;
65206;SDS011;58477;48.072;11.970;2023-11-21T14:11:21;1.80;;;1.40;;
65206;SDS011;58477;48.072;11.970;2023-11-21T14:13:47;6.28;;;1.17;;
65206;SDS011;58477;48.072;11.970;2023-11-21T14:16:14;3.80;;;1.60;;
65206;SDS011;58477;48.072;11.970;2023-11-21T14:18:42;2.75;;;1.50;;
65206;SDS011;58477;48.072;11.970;2023-11-21T14:21:20;2.88;;;1.10;;
65206;SDS011;58477;48.072;11.970;2023-11-21T14:23:46;1.13;;;1.00;;
65206;SDS011;58477;48.072;11.970;2023-11-21T14:26:13;1.52;;;0.90;;
65206;SDS011;58477;48.072;11.970;2023-11-21T14:28:40;1.27;;;1.08;;
65206;SDS011;58477;48.072;11.970;2023-11-21T14:31:07;1.00;;;1.00;;
65206;SDS011;58477;48.072;11.970;2023-11-21T14:33:33;1.10;;;1.00;;
65206;SDS011;58477;48.072;11.970;2023-11-21T14:35:58;0.60;;;0.43;;
65206;SDS011;58477;48.072;11.970;2023-11-21T14:38:24;1.55;;;1.10;;
65206;SDS011;58477;48.072;11.970;2023-11-21T14:40:49;1.98;;;1.00;;
65206;SDS011;58477;48.072;11.970;2023-11-21T14:43:15;0.60;;;0.60;;
65206;SDS011;58477;48.072;11.970;2023-11-21T14:45:41;0.85;;;0.85;;
65206;SDS011;58477;48.072;11.970;2023-11-21T14:48:06;1.20;;;1.10;;
65206;SDS011;58477;48.072;11.970;2023-11-21T14:50:34;1.42;;;1.20;;
65206;SDS011;58477;48.072;11.970;2023-11-21T14:53:02;1.20;;;1.10;;